Cleavesville, Missouri
Current Conditions -  °F | °C
As of 11:06 AM on Sunday 21 Dec 2014 (Local Time) from KVIH Reporting Station
Overcast Overcast  
Wind Chill: 33°   Ceiling: 3100
Heat Index: 40°   Visibility: 10mi
Dew Point: 34°   Wind: 10mph
Humidity: 79%   Direction: 170°S
Pressure: 30.09"   Gusts: NA
Location:  38.3239°N, 91.6268°W
Report Text: KVIH 211706Z AUTO 17009KT 10SM FEW025 OVC031 04/01 A3009 RMK AO2 T00440011
Loading
Personal Weather Stations






























Interactive Weather Map New forecast layout! Learn more

10-Day Weather Forecast

Advertisements
Track Severe Weather on mobile